createdAt,value
2022-08-28T00:02:01.764Z,1.75
2022-08-28T00:07:23.270Z,2.20
2022-08-28T00:12:47.167Z,2.33
2022-08-28T00:18:09.022Z,2.90
2022-08-28T00:23:42.274Z,2.53
2022-08-28T00:29:05.567Z,1.52
2022-08-28T00:34:32.993Z,1.90
2022-08-28T00:39:55.309Z,2.80
2022-08-28T00:45:20.564Z,2.35
2022-08-28T00:51:00.958Z,2.53
2022-08-28T00:56:23.516Z,2.38
2022-08-28T01:01:47.663Z,2.25
2022-08-28T01:07:13.156Z,2.55
2022-08-28T01:12:36.021Z,2.45
2022-08-28T01:18:07.369Z,2.30
2022-08-28T01:23:57.984Z,1.92
2022-08-28T01:29:20.988Z,2.43
2022-08-28T01:34:42.417Z,2.22
2022-08-28T01:40:09.556Z,2.22
2022-08-28T01:45:32.297Z,1.90
2022-08-28T01:50:55.517Z,3.00
2022-08-28T01:56:17.969Z,2.63
2022-08-28T02:01:42.784Z,2.35
2022-08-28T02:07:04.495Z,2.55
2022-08-28T02:12:26.101Z,2.58
2022-08-28T02:17:47.973Z,2.70
2022-08-28T02:23:10.107Z,2.20
2022-08-28T02:28:31.879Z,2.85
2022-08-28T02:33:53.690Z,3.20
2022-08-28T02:39:16.782Z,2.95
2022-08-28T02:44:38.817Z,2.75
2022-08-28T02:50:00.504Z,2.55
2022-08-28T02:55:24.774Z,2.75
2022-08-28T03:00:46.374Z,2.85
2022-08-28T03:06:08.820Z,2.97
2022-08-28T03:11:30.414Z,3.08
2022-08-28T03:16:52.933Z,3.60
2022-08-28T03:22:14.400Z,2.85
2022-08-28T03:27:36.253Z,3.28
2022-08-28T03:32:57.744Z,2.92
2022-08-28T03:38:19.944Z,2.90
2022-08-28T03:43:41.754Z,3.10
2022-08-28T03:49:04.605Z,2.42
2022-08-28T03:54:26.376Z,3.60
2022-08-28T03:59:53.373Z,3.55
2022-08-28T04:05:15.017Z,3.25
2022-08-28T04:10:36.924Z,3.33
2022-08-28T04:16:00.539Z,3.53
2022-08-28T04:21:24.522Z,3.00
2022-08-28T04:26:46.002Z,3.45
2022-08-28T04:32:07.848Z,3.70
2022-08-28T04:37:29.383Z,2.85
2022-08-28T04:42:51.901Z,3.10
2022-08-28T04:48:14.652Z,3.10
2022-08-28T04:53:38.608Z,3.38
2022-08-28T04:59:01.605Z,3.72
2022-08-28T05:04:23.129Z,3.53
2022-08-28T05:09:44.893Z,4.82
2022-08-28T05:15:06.938Z,5.47
2022-08-28T05:20:28.459Z,4.53
2022-08-28T05:25:50.072Z,4.35
2022-08-28T05:31:16.576Z,4.95
2022-08-28T05:36:39.694Z,4.88
2022-08-28T05:42:01.182Z,4.90
2022-08-28T05:47:22.521Z,5.35
2022-08-28T05:52:44.848Z,3.88
2022-08-28T05:58:26.189Z,5.13
2022-08-28T06:03:55.332Z,4.05
2022-08-28T06:09:28.105Z,3.78
2022-08-28T06:14:50.846Z,3.67
2022-08-28T06:20:13.026Z,3.58
2022-08-28T06:25:45.261Z,2.80
2022-08-28T06:31:24.657Z,3.63
2022-08-28T06:36:53.117Z,3.28
2022-08-28T06:42:15.974Z,3.03
2022-08-28T06:47:37.279Z,3.08
2022-08-28T06:52:59.132Z,2.53
2022-08-28T06:58:20.776Z,3.28
2022-08-28T07:03:44.330Z,3.13
2022-08-28T07:09:09.556Z,3.72
2022-08-28T07:14:30.864Z,3.80
2022-08-28T07:19:52.135Z,3.22
2022-08-28T07:25:15.808Z,2.92
2022-08-28T07:30:37.809Z,3.30
2022-08-28T07:36:00.536Z,2.53
2022-08-28T07:41:31.982Z,2.35
2022-08-28T07:46:55.649Z,2.05
2022-08-28T07:52:17.050Z,2.15
2022-08-28T07:57:38.434Z,1.95
2022-08-28T08:03:00.100Z,2.50
2022-08-28T08:08:22.520Z,1.58
2022-08-28T08:13:46.900Z,1.60
2022-08-28T08:19:16.920Z,1.90
2022-08-28T08:24:38.523Z,1.83
2022-08-28T08:30:01.269Z,1.88
2022-08-28T08:35:24.555Z,2.08
2022-08-28T08:40:47.532Z,1.65
2022-08-28T08:46:10.279Z,1.58
2022-08-28T08:51:43.215Z,1.90
2022-08-28T08:57:05.146Z,1.85
2022-08-28T09:02:34.662Z,1.30
2022-08-28T09:08:01.177Z,1.83
2022-08-28T09:13:34.252Z,1.20
2022-08-28T09:18:58.044Z,1.15
2022-08-28T09:24:35.659Z,1.38
2022-08-28T09:29:59.168Z,1.40
2022-08-28T09:35:32.562Z,1.35
2022-08-28T09:41:30.030Z,1.88
2022-08-28T09:46:52.674Z,1.27
2022-08-28T09:52:25.008Z,1.98
2022-08-28T09:57:48.572Z,0.75
2022-08-28T10:03:27.860Z,1.27
2022-08-28T10:09:01.654Z,1.25
2022-08-28T10:14:34.594Z,1.90
2022-08-28T10:20:17.910Z,1.38
2022-08-28T10:25:59.340Z,1.40
2022-08-28T10:31:43.546Z,1.42
2022-08-28T10:37:16.668Z,1.63
2022-08-28T10:42:47.967Z,1.58
2022-08-28T10:48:33.615Z,1.30
2022-08-28T10:54:24.948Z,1.65
2022-08-28T10:59:51.359Z,1.23
2022-08-28T11:05:13.365Z,1.27
2022-08-28T11:10:45.556Z,1.45
2022-08-28T11:16:18.428Z,1.73
2022-08-28T11:21:42.636Z,1.35
2022-08-28T11:27:20.912Z,1.42
2022-08-28T11:32:51.516Z,1.42
2022-08-28T11:38:42.032Z,1.58
2022-08-28T11:44:09.686Z,1.88
2022-08-28T11:49:39.325Z,1.33
2022-08-28T11:55:16.322Z,1.50
2022-08-28T12:00:58.057Z,1.35
2022-08-28T12:06:44.893Z,1.70
2022-08-28T12:12:13.770Z,1.25
2022-08-28T12:17:46.867Z,0.93
2022-08-28T12:23:23.817Z,1.13
2022-08-28T12:28:48.620Z,1.40
2022-08-28T12:34:24.655Z,1.73
2022-08-28T12:39:45.971Z,1.23
2022-08-28T12:45:11.292Z,1.40
2022-08-28T12:50:39.294Z,1.40
2022-08-28T12:56:01.097Z,1.10
2022-08-28T13:01:31.730Z,1.55
2022-08-28T13:07:01.997Z,1.50
2022-08-28T13:12:55.281Z,1.40
2022-08-28T13:18:52.321Z,1.73
2022-08-28T13:24:27.532Z,2.55
2022-08-28T13:29:57.389Z,2.42
2022-08-28T13:35:21.034Z,2.40
2022-08-28T13:40:59.377Z,2.42
2022-08-28T13:46:21.569Z,2.25
2022-08-28T13:51:43.567Z,1.52
2022-08-28T13:57:05.698Z,1.73
2022-08-28T14:02:46.684Z,1.77
2022-08-28T14:08:08.647Z,1.98
2022-08-28T14:13:31.409Z,1.40
2022-08-28T14:18:54.839Z,1.50
2022-08-28T14:24:19.116Z,1.77
2022-08-28T14:29:41.699Z,1.45
2022-08-28T14:35:05.975Z,1.80
2022-08-28T14:40:27.424Z,2.15
2022-08-28T14:45:50.493Z,1.90
2022-08-28T14:51:11.943Z,2.08
2022-08-28T14:56:33.648Z,2.25
2022-08-28T15:02:00.344Z,2.25
2022-08-28T15:07:23.007Z,2.65
2022-08-28T15:12:44.784Z,2.85
2022-08-28T15:18:10.661Z,2.53
2022-08-28T15:23:32.852Z,2.53
2022-08-28T15:29:02.508Z,3.10
2022-08-28T15:34:27.573Z,2.80
2022-08-28T15:40:08.254Z,2.40
2022-08-28T15:45:30.185Z,2.35
2022-08-28T15:50:52.577Z,3.00
2022-08-28T15:56:15.663Z,2.70
2022-08-28T16:01:38.675Z,2.50
2022-08-28T16:07:01.177Z,3.00
2022-08-28T16:12:23.139Z,3.33
2022-08-28T16:17:44.852Z,2.38
2022-08-28T16:23:06.184Z,2.90
2022-08-28T16:28:28.945Z,2.78
2022-08-28T16:33:50.966Z,3.10
2022-08-28T16:39:12.346Z,2.80
2022-08-28T16:44:35.086Z,4.30
2022-08-28T16:49:58.306Z,3.03
2022-08-28T16:55:19.943Z,3.38
2022-08-28T17:00:52.828Z,3.83
2022-08-28T17:06:19.758Z,3.85
2022-08-28T17:11:42.277Z,3.88
2022-08-28T17:17:04.899Z,3.72
2022-08-28T17:22:32.704Z,3.00
2022-08-28T17:27:54.830Z,2.25
2022-08-28T17:33:16.435Z,2.42
2022-08-28T17:38:38.614Z,3.10
2022-08-28T17:44:01.153Z,3.45
2022-08-28T17:49:22.973Z,3.15
2022-08-28T17:54:56.292Z,3.03
2022-08-28T18:00:18.507Z,3.42
2022-08-28T18:05:41.477Z,3.03
2022-08-28T18:11:02.940Z,3.33
2022-08-28T18:16:28.892Z,4.22
2022-08-28T18:21:51.982Z,3.85
2022-08-28T18:27:13.526Z,4.60
2022-08-28T18:32:35.279Z,4.75
2022-08-28T18:37:56.778Z,3.83
2022-08-28T18:43:20.483Z,3.10
2022-08-28T18:48:43.224Z,3.75
2022-08-28T18:54:04.660Z,4.03
2022-08-28T18:59:31.862Z,3.97
2022-08-28T19:04:53.619Z,3.13
2022-08-28T19:10:32.812Z,2.40
2022-08-28T19:15:55.803Z,2.88
2022-08-28T19:21:19.833Z,3.00
2022-08-28T19:26:41.388Z,2.47
2022-08-28T19:32:03.283Z,3.13
2022-08-28T19:37:25.412Z,4.30
2022-08-28T19:42:46.921Z,4.13
2022-08-28T19:48:08.850Z,3.60
2022-08-28T19:53:31.809Z,3.30
2022-08-28T19:58:54.962Z,3.63
2022-08-28T20:04:17.978Z,4.95
2022-08-28T20:09:39.716Z,5.20
2022-08-28T20:15:03.629Z,4.30
2022-08-28T20:20:29.752Z,3.80
2022-08-28T20:25:51.884Z,3.20
2022-08-28T20:31:18.151Z,4.72
2022-08-28T20:36:40.210Z,3.22
2022-08-28T20:42:01.525Z,2.97
2022-08-28T20:47:23.541Z,3.38
2022-08-28T20:52:45.491Z,4.22
2022-08-28T20:58:07.294Z,3.35
2022-08-28T21:03:29.182Z,2.63
2022-08-28T21:08:50.761Z,2.45
2022-08-28T21:14:12.673Z,3.05
2022-08-28T21:19:40.670Z,2.75
2022-08-28T21:25:02.719Z,2.60
2022-08-28T21:30:25.496Z,1.95
2022-08-28T21:35:51.040Z,2.13
2022-08-28T21:41:14.409Z,3.25
2022-08-28T21:46:35.805Z,2.63
2022-08-28T21:52:01.265Z,2.75
2022-08-28T21:57:22.775Z,2.72
2022-08-28T22:02:44.631Z,2.67
2022-08-28T22:08:05.787Z,2.50
2022-08-28T22:13:27.488Z,1.92
2022-08-28T22:18:49.116Z,4.38
2022-08-28T22:24:12.110Z,3.75
2022-08-28T22:29:36.721Z,5.03
2022-08-28T22:34:58.109Z,4.25
2022-08-28T22:40:20.746Z,4.57
2022-08-28T22:46:23.918Z,5.68
2022-08-28T22:51:45.473Z,4.63
2022-08-28T22:57:07.122Z,4.40
2022-08-28T23:02:28.996Z,5.35
2022-08-28T23:07:50.779Z,4.68
2022-08-28T23:13:14.287Z,4.82
2022-08-28T23:19:06.128Z,4.03
2022-08-28T23:24:17.937Z,4.18
2022-08-28T23:29:39.730Z,4.22
2022-08-28T23:35:01.299Z,3.83
2022-08-28T23:40:24.838Z,3.90
2022-08-28T23:45:46.254Z,3.50
2022-08-28T23:51:11.839Z,4.15
2022-08-28T23:56:33.841Z,3.35
